createdAt,value
2019-03-20T00:00:41.223Z,1.50
2019-03-20T00:03:09.647Z,1.60
2019-03-20T00:05:38.115Z,1.53
2019-03-20T00:08:06.553Z,2.37
2019-03-20T00:10:35.483Z,1.77
2019-03-20T00:13:04.249Z,1.70
2019-03-20T00:15:32.688Z,1.60
2019-03-20T00:18:01.426Z,1.63
2019-03-20T00:20:29.864Z,1.47
2019-03-20T00:22:58.311Z,1.50
2019-03-20T00:25:26.704Z,1.43
2019-03-20T00:27:55.075Z,1.20
2019-03-20T00:30:23.520Z,1.20
2019-03-20T00:32:51.975Z,1.50
2019-03-20T00:35:20.372Z,1.23
2019-03-20T00:37:48.827Z,1.40
2019-03-20T00:40:17.336Z,1.60
2019-03-20T00:42:45.788Z,1.40
2019-03-20T00:45:14.339Z,1.60
2019-03-20T00:47:43.057Z,1.30
2019-03-20T00:50:14.433Z,1.43
2019-03-20T00:52:42.905Z,1.43
2019-03-20T00:55:11.582Z,1.33
2019-03-20T00:57:40.021Z,1.37
2019-03-20T01:00:10.134Z,1.10
2019-03-20T01:02:38.563Z,1.30
2019-03-20T01:05:12.602Z,1.10
2019-03-20T01:07:37.419Z,1.30
2019-03-20T01:10:06.796Z,1.73
2019-03-20T01:12:35.481Z,1.37
2019-03-20T01:15:04.139Z,1.20
2019-03-20T01:17:32.581Z,1.30
2019-03-20T01:20:01.246Z,1.10
2019-03-20T01:22:29.695Z,1.30
2019-03-20T01:24:58.051Z,1.47
2019-03-20T01:27:26.435Z,1.50
2019-03-20T01:29:54.804Z,1.07
2019-03-20T01:32:23.468Z,1.13
2019-03-20T01:34:51.935Z,1.33
2019-03-20T01:37:20.653Z,1.37
2019-03-20T01:39:48.975Z,1.30
2019-03-20T01:42:17.411Z,1.37
2019-03-20T01:44:45.855Z,1.23
2019-03-20T01:47:14.484Z,1.20
2019-03-20T01:49:42.880Z,1.10
2019-03-20T01:52:11.231Z,1.27
2019-03-20T01:54:39.676Z,1.30
2019-03-20T01:57:08.100Z,1.40
2019-03-20T01:59:36.450Z,1.10
2019-03-20T02:02:06.308Z,1.50
2019-03-20T02:04:34.695Z,1.27
2019-03-20T02:07:03.066Z,1.17
2019-03-20T02:09:31.427Z,1.40
2019-03-20T02:12:00.212Z,1.40
2019-03-20T02:14:29.045Z,1.20
2019-03-20T02:16:57.484Z,1.20
2019-03-20T02:19:26.194Z,1.30
2019-03-20T02:21:54.620Z,1.40
2019-03-20T02:24:23.293Z,1.50
2019-03-20T02:26:51.675Z,1.40
2019-03-20T02:29:20.091Z,1.40
2019-03-20T02:31:48.511Z,1.30
2019-03-20T02:34:16.874Z,1.40
2019-03-20T02:36:45.221Z,1.20
2019-03-20T02:39:13.600Z,1.43
2019-03-20T02:41:42.021Z,1.67
2019-03-20T02:44:10.375Z,1.30
2019-03-20T02:46:38.721Z,1.33
2019-03-20T02:49:07.162Z,1.30
2019-03-20T02:51:35.518Z,1.23
2019-03-20T02:54:04.049Z,1.10
2019-03-20T02:56:32.526Z,1.30
2019-03-20T02:59:01.167Z,0.90
2019-03-20T03:01:29.521Z,1.10
2019-03-20T03:03:57.900Z,1.20
2019-03-20T03:06:26.286Z,1.20
2019-03-20T03:08:54.634Z,1.17
2019-03-20T03:11:23.306Z,1.10
2019-03-20T03:13:51.670Z,1.03
2019-03-20T03:16:20.120Z,1.07
2019-03-20T03:18:48.745Z,1.27
2019-03-20T03:21:17.183Z,1.00
2019-03-20T03:23:45.544Z,1.00
2019-03-20T03:26:13.982Z,1.07
2019-03-20T03:28:42.327Z,1.20
2019-03-20T03:31:10.693Z,1.40
2019-03-20T03:33:39.124Z,1.20
2019-03-20T03:36:20.633Z,1.23
2019-03-20T03:38:37.624Z,1.30
2019-03-20T03:41:05.964Z,1.30
2019-03-20T03:46:12.349Z,1.27
2019-03-20T03:48:40.724Z,2.00
2019-03-20T03:51:09.391Z,1.27
2019-03-20T03:53:37.842Z,1.67
2019-03-20T03:56:06.210Z,1.30
2019-03-20T03:58:34.573Z,1.30
2019-03-20T04:01:03.014Z,1.00
2019-03-20T04:03:31.434Z,1.00
2019-03-20T04:05:59.797Z,1.37
2019-03-20T04:08:28.230Z,1.00
2019-03-20T04:10:56.944Z,1.30
2019-03-20T04:13:25.422Z,1.97
2019-03-20T04:15:53.864Z,1.70
2019-03-20T04:18:22.396Z,1.67
2019-03-20T04:20:50.773Z,1.40
2019-03-20T04:23:19.228Z,1.43
2019-03-20T04:25:47.612Z,1.30
2019-03-20T04:28:16.071Z,1.20
2019-03-20T04:30:44.511Z,1.20
2019-03-20T04:33:13.242Z,1.40
2019-03-20T04:35:41.570Z,1.20
2019-03-20T04:38:09.938Z,1.30
2019-03-20T04:40:38.296Z,1.20
2019-03-20T04:43:07.107Z,1.20
2019-03-20T04:45:35.766Z,1.00
2019-03-20T04:48:04.217Z,1.87
2019-03-20T04:50:32.576Z,1.53
2019-03-20T04:53:01.032Z,1.27
2019-03-20T04:55:29.388Z,1.43
2019-03-20T04:57:58.104Z,1.27
2019-03-20T05:00:26.606Z,1.60
2019-03-20T05:02:54.964Z,1.90
2019-03-20T05:05:23.336Z,1.57
2019-03-20T05:07:51.705Z,1.50
2019-03-20T05:10:20.093Z,1.90
2019-03-20T05:12:48.514Z,3.60
2019-03-20T05:15:16.940Z,2.20
2019-03-20T05:17:45.391Z,3.03
2019-03-20T05:20:13.855Z,2.00
2019-03-20T05:22:42.287Z,2.10
2019-03-20T05:25:10.718Z,1.70
2019-03-20T05:27:39.167Z,1.50
2019-03-20T05:30:08.020Z,1.40
2019-03-20T05:32:36.643Z,1.87
2019-03-20T05:35:05.451Z,1.60
2019-03-20T05:37:33.819Z,1.17
2019-03-20T05:40:02.211Z,1.60
2019-03-20T05:42:30.630Z,1.23
2019-03-20T05:44:59.091Z,1.43
2019-03-20T05:47:27.492Z,1.40
2019-03-20T05:49:55.918Z,1.60
2019-03-20T05:52:24.543Z,1.40
2019-03-20T05:54:53.211Z,1.80
2019-03-20T05:57:21.592Z,1.83
2019-03-20T05:59:50.294Z,1.60
2019-03-20T06:02:19.223Z,1.53
2019-03-20T06:04:47.591Z,1.53
2019-03-20T06:07:21.627Z,1.30
2019-03-20T06:09:46.043Z,1.60
2019-03-20T06:12:21.675Z,1.93
2019-03-20T06:14:50.351Z,1.80
2019-03-20T06:17:18.763Z,1.43
2019-03-20T06:19:47.123Z,2.00
2019-03-20T06:22:16.201Z,1.57
2019-03-20T06:24:44.617Z,2.00
2019-03-20T06:27:12.963Z,2.17
2019-03-20T06:29:41.689Z,1.70
2019-03-20T06:32:10.085Z,1.73
2019-03-20T06:34:38.453Z,1.27
2019-03-20T06:37:06.799Z,1.50
2019-03-20T06:39:35.434Z,1.30
2019-03-20T06:42:03.972Z,1.27
2019-03-20T06:44:32.340Z,1.70
2019-03-20T06:47:00.729Z,1.40
2019-03-20T06:49:29.095Z,1.60
2019-03-20T06:51:57.529Z,1.17
2019-03-20T06:54:25.913Z,1.70
2019-03-20T06:56:54.272Z,1.50
2019-03-20T06:59:26.124Z,1.70
2019-03-20T07:01:54.387Z,1.37
2019-03-20T07:04:29.235Z,1.20
2019-03-20T07:07:16.821Z,1.67
2019-03-20T07:09:47.619Z,1.00
2019-03-20T07:12:16.004Z,1.30
2019-03-20T07:14:44.608Z,1.30
2019-03-20T07:17:12.977Z,1.43
2019-03-20T07:19:41.836Z,1.20
2019-03-20T07:22:10.217Z,1.20
2019-03-20T07:24:38.889Z,1.53
2019-03-20T07:27:07.350Z,1.10
2019-03-20T07:29:36.031Z,1.80
2019-03-20T07:32:04.715Z,1.53
2019-03-20T07:34:33.071Z,1.40
2019-03-20T07:37:02.211Z,1.40
2019-03-20T07:39:30.564Z,1.40
2019-03-20T07:41:59.603Z,1.13
2019-03-20T07:44:28.280Z,1.37
2019-03-20T07:46:56.680Z,1.30
2019-03-20T07:49:25.054Z,1.40
2019-03-20T07:51:53.406Z,1.10
2019-03-20T07:54:21.756Z,1.40
2019-03-20T07:56:50.120Z,1.00
2019-03-20T07:59:18.852Z,1.20
2019-03-20T08:01:47.221Z,1.30
2019-03-20T08:04:15.642Z,1.10
2019-03-20T08:06:44.335Z,1.00
2019-03-20T08:09:13.040Z,1.17
2019-03-20T08:11:41.424Z,1.17
2019-03-20T08:14:09.887Z,1.20
2019-03-20T08:16:38.310Z,1.87
2019-03-20T08:19:06.913Z,1.43
2019-03-20T08:21:35.371Z,1.23
2019-03-20T08:24:03.898Z,1.10
2019-03-20T08:26:32.649Z,1.00
2019-03-20T08:29:00.984Z,1.00
2019-03-20T08:31:29.366Z,1.10
2019-03-20T08:33:57.727Z,1.00
2019-03-20T08:36:26.084Z,1.03
2019-03-20T08:38:54.962Z,1.00
2019-03-20T08:41:23.336Z,0.90
2019-03-20T08:43:51.748Z,1.10
2019-03-20T08:46:20.231Z,0.97
2019-03-20T08:48:48.618Z,1.07
2019-03-20T08:51:17.088Z,1.10
2019-03-20T08:53:45.453Z,0.90
2019-03-20T08:56:14.298Z,1.03
2019-03-20T08:58:42.759Z,0.93
2019-03-20T09:01:11.138Z,0.90
2019-03-20T09:03:39.639Z,1.20
2019-03-20T09:06:07.994Z,0.97
2019-03-20T09:08:36.586Z,0.97
2019-03-20T09:11:04.999Z,0.90
2019-03-20T09:13:33.342Z,1.00
2019-03-20T09:16:01.743Z,0.93
2019-03-20T09:18:30.096Z,1.00
2019-03-20T09:20:58.804Z,1.00
2019-03-20T09:23:27.266Z,0.80
2019-03-20T09:25:55.627Z,0.87
2019-03-20T09:28:24.010Z,1.10
2019-03-20T09:30:52.433Z,1.10
2019-03-20T09:33:20.793Z,0.97
2019-03-20T09:35:49.228Z,0.90
2019-03-20T09:38:17.593Z,0.90
2019-03-20T09:40:46.770Z,0.80
2019-03-20T09:43:15.219Z,0.80
2019-03-20T09:45:43.656Z,1.00
2019-03-20T09:48:12.305Z,1.20
2019-03-20T09:50:40.944Z,0.93
2019-03-20T09:53:09.330Z,0.77
2019-03-20T09:55:37.769Z,1.03
2019-03-20T09:58:11.811Z,0.70
2019-03-20T10:00:39.089Z,0.60
2019-03-20T10:03:07.465Z,0.60
2019-03-20T10:05:35.900Z,0.97
2019-03-20T10:08:04.339Z,0.67
2019-03-20T10:10:32.739Z,1.00
2019-03-20T10:13:01.237Z,0.80
2019-03-20T10:15:29.695Z,0.90
2019-03-20T10:17:58.178Z,0.80
2019-03-20T10:23:13.055Z,1.60
2019-03-20T10:25:45.106Z,1.20
2019-03-20T10:28:13.726Z,0.97
2019-03-20T10:30:42.149Z,1.10
2019-03-20T10:33:10.556Z,1.60
2019-03-20T10:35:38.973Z,0.87
2019-03-20T10:38:09.183Z,0.90
2019-03-20T10:40:37.648Z,0.90
2019-03-20T10:43:06.436Z,0.90
2019-03-20T10:45:34.904Z,1.13
2019-03-20T10:48:03.396Z,1.00
2019-03-20T10:50:31.933Z,0.90
2019-03-20T10:53:00.335Z,1.00
2019-03-20T10:55:28.734Z,0.90
2019-03-20T10:57:57.501Z,0.90
2019-03-20T11:00:26.010Z,1.40
2019-03-20T11:02:54.480Z,1.00
2019-03-20T11:05:23.061Z,1.20
2019-03-20T11:07:51.592Z,1.10
2019-03-20T11:10:21.039Z,1.23
2019-03-20T11:12:49.553Z,1.20
2019-03-20T11:15:18.137Z,0.90
2019-03-20T11:17:46.641Z,0.97
2019-03-20T11:20:15.960Z,1.00
2019-03-20T11:22:44.428Z,1.17
2019-03-20T11:25:13.572Z,1.33
2019-03-20T11:27:42.045Z,0.90
2019-03-20T11:30:17.728Z,1.03
2019-03-20T11:32:45.648Z,1.67
2019-03-20T11:35:14.121Z,1.00
2019-03-20T11:37:42.542Z,1.30
2019-03-20T11:40:12.520Z,1.63
2019-03-20T11:42:41.031Z,1.10
2019-03-20T11:45:09.667Z,0.70
2019-03-20T11:47:38.059Z,0.90
2019-03-20T11:50:08.666Z,0.83
2019-03-20T11:52:37.069Z,0.93
2019-03-20T11:55:06.272Z,1.27
2019-03-20T11:57:34.793Z,0.90
2019-03-20T12:00:03.603Z,1.80
2019-03-20T12:02:32.027Z,0.70
2019-03-20T12:05:00.469Z,0.90
2019-03-20T12:07:28.855Z,1.13
2019-03-20T12:09:58.898Z,1.20
2019-03-20T12:12:27.724Z,1.17
2019-03-20T12:14:56.207Z,1.57
2019-03-20T12:17:24.617Z,1.33
2019-03-20T12:19:53.351Z,1.03
2019-03-20T12:22:21.857Z,1.37
2019-03-20T12:24:50.272Z,1.10
2019-03-20T12:27:18.849Z,1.50
2019-03-20T12:29:47.539Z,1.90
2019-03-20T12:32:17.215Z,1.80
2019-03-20T12:34:45.623Z,1.43
2019-03-20T12:37:14.184Z,1.40
2019-03-20T12:39:52.781Z,1.47
2019-03-20T12:42:13.076Z,1.30
2019-03-20T12:44:41.866Z,1.43
2019-03-20T12:47:10.308Z,1.47
2019-03-20T12:49:38.789Z,1.17
2019-03-20T12:52:07.279Z,1.90
2019-03-20T12:54:35.679Z,1.07
2019-03-20T12:57:04.174Z,1.17
2019-03-20T12:59:32.613Z,0.90
2019-03-20T13:02:01.224Z,1.57
2019-03-20T13:04:29.628Z,1.93
2019-03-20T13:06:58.045Z,1.57
2019-03-20T13:09:26.510Z,1.00
2019-03-20T13:11:55.044Z,1.80
2019-03-20T13:14:23.442Z,1.13
2019-03-20T13:16:51.839Z,1.63
2019-03-20T13:19:20.284Z,1.30
2019-03-20T13:21:48.697Z,1.30
2019-03-20T13:24:17.406Z,1.07
2019-03-20T13:26:45.842Z,1.43
2019-03-20T13:29:14.244Z,1.30
2019-03-20T13:31:42.761Z,1.20
2019-03-20T13:34:11.197Z,1.43
2019-03-20T13:36:39.615Z,1.37
2019-03-20T13:39:08.047Z,1.53
2019-03-20T13:41:36.478Z,1.30
2019-03-20T13:44:04.887Z,1.10
2019-03-20T13:46:33.334Z,1.07
2019-03-20T13:49:01.760Z,1.30
2019-03-20T13:51:30.392Z,1.53
2019-03-20T13:53:58.818Z,1.00
2019-03-20T13:56:27.307Z,1.30
2019-03-20T13:58:55.777Z,1.00
2019-03-20T14:01:24.365Z,0.90
2019-03-20T14:03:52.764Z,1.00
2019-03-20T14:06:21.168Z,1.03
2019-03-20T14:08:49.565Z,1.07
2019-03-20T14:11:18.057Z,1.10
2019-03-20T14:13:46.558Z,0.93
2019-03-20T14:16:14.990Z,0.90
2019-03-20T14:18:43.411Z,1.10
2019-03-20T14:21:12.122Z,1.27
2019-03-20T14:23:40.528Z,1.20
2019-03-20T14:26:08.972Z,1.07
2019-03-20T14:28:37.384Z,0.93
2019-03-20T14:31:05.791Z,0.93
2019-03-20T14:33:34.490Z,1.10
2019-03-20T14:36:02.923Z,1.20
2019-03-20T14:38:31.637Z,0.93
2019-03-20T14:41:00.088Z,1.10
2019-03-20T14:43:28.495Z,0.87
2019-03-20T14:45:56.915Z,0.90
2019-03-20T14:48:25.360Z,0.90
2019-03-20T14:50:54.130Z,0.70
2019-03-20T14:53:22.639Z,0.70
2019-03-20T14:55:51.053Z,1.07
2019-03-20T14:58:19.455Z,0.90
2019-03-20T15:00:47.930Z,0.90
2019-03-20T15:03:16.411Z,0.97
2019-03-20T15:05:44.920Z,0.77
2019-03-20T15:08:13.579Z,0.93
2019-03-20T15:10:45.881Z,1.47
2019-03-20T15:13:12.151Z,0.80
2019-03-20T15:15:42.266Z,1.40
2019-03-20T15:18:10.764Z,0.90
2019-03-20T15:20:39.299Z,0.73
2019-03-20T15:23:07.816Z,0.90
2019-03-20T15:25:36.571Z,1.50
2019-03-20T15:28:05.382Z,1.60
2019-03-20T15:30:33.825Z,1.80
2019-03-20T15:33:02.597Z,2.37
2019-03-20T15:35:31.044Z,1.63
2019-03-20T15:37:59.549Z,1.60
2019-03-20T15:40:28.036Z,1.77
2019-03-20T15:42:56.539Z,1.20
2019-03-20T15:45:24.931Z,1.00
2019-03-20T15:47:53.610Z,1.40
2019-03-20T15:50:22.066Z,1.13
2019-03-20T15:52:50.607Z,1.10
2019-03-20T15:55:20.477Z,1.17
2019-03-20T15:57:48.896Z,1.40
2019-03-20T16:00:17.957Z,0.90
2019-03-20T16:02:46.964Z,1.20
2019-03-20T16:05:15.700Z,1.10
2019-03-20T16:07:44.120Z,1.50
2019-03-20T16:10:14.175Z,1.50
2019-03-20T16:12:42.641Z,1.00
2019-03-20T16:15:12.210Z,1.17
2019-03-20T16:17:40.614Z,1.20
2019-03-20T16:20:09.494Z,1.37
2019-03-20T16:22:37.920Z,2.03
2019-03-20T16:25:06.513Z,1.50
2019-03-20T16:27:35.264Z,1.40
2019-03-20T16:30:03.831Z,1.40
2019-03-20T16:32:32.246Z,1.33
2019-03-20T16:35:01.039Z,0.90
2019-03-20T16:37:29.531Z,1.07
2019-03-20T16:39:58.224Z,1.20
2019-03-20T16:42:26.635Z,1.20
2019-03-20T16:44:55.023Z,1.40
2019-03-20T16:47:23.443Z,1.27
2019-03-20T16:49:51.854Z,1.13
2019-03-20T16:52:20.567Z,1.13
2019-03-20T16:54:48.977Z,1.10
2019-03-20T16:57:17.418Z,1.00
2019-03-20T16:59:45.893Z,1.00
2019-03-20T17:02:14.430Z,1.27
2019-03-20T17:04:42.852Z,0.90
2019-03-20T17:07:11.335Z,1.07
2019-03-20T17:09:39.808Z,1.00
2019-03-20T17:12:08.222Z,1.30
2019-03-20T17:14:36.637Z,1.10
2019-03-20T17:17:05.122Z,1.33
2019-03-20T17:19:33.540Z,1.20
2019-03-20T17:22:01.943Z,1.13
2019-03-20T17:24:30.456Z,1.00
2019-03-20T17:26:59.022Z,1.00
2019-03-20T17:29:28.005Z,1.10
2019-03-20T17:31:56.439Z,1.03
2019-03-20T17:34:24.902Z,1.43
2019-03-20T17:36:53.295Z,1.67
2019-03-20T17:39:22.055Z,1.33
2019-03-20T17:41:50.441Z,0.83
2019-03-20T17:44:18.851Z,1.00
2019-03-20T17:46:47.350Z,1.10
2019-03-20T17:49:15.860Z,0.80
2019-03-20T17:51:46.367Z,1.13
2019-03-20T17:54:14.847Z,1.27
2019-03-20T17:56:43.303Z,0.90
2019-03-20T17:59:13.256Z,1.33
2019-03-20T18:01:41.900Z,1.20
2019-03-20T18:04:10.348Z,1.47
2019-03-20T18:06:38.748Z,1.30
2019-03-20T18:09:08.113Z,1.40
2019-03-20T18:11:36.514Z,1.20
2019-03-20T18:14:04.997Z,2.10
2019-03-20T18:16:33.476Z,1.60
2019-03-20T18:19:01.943Z,1.67
2019-03-20T18:21:30.323Z,1.80
2019-03-20T18:23:58.893Z,1.77
2019-03-20T18:26:27.754Z,2.10
2019-03-20T18:28:56.564Z,2.43
2019-03-20T18:31:24.990Z,1.50
2019-03-20T18:33:53.711Z,2.17
2019-03-20T18:36:30.988Z,2.23
2019-03-20T18:38:59.649Z,2.50
2019-03-20T18:41:28.053Z,2.10
2019-03-20T18:43:56.450Z,1.90
2019-03-20T18:46:24.892Z,1.50
2019-03-20T18:48:53.327Z,1.80
2019-03-20T18:51:21.708Z,2.20
2019-03-20T18:53:50.339Z,1.93
2019-03-20T18:56:19.049Z,1.70
2019-03-20T18:58:47.728Z,1.50
2019-03-20T19:01:16.164Z,1.83
2019-03-20T19:03:45.181Z,1.20
2019-03-20T19:06:15.457Z,1.30
2019-03-20T19:08:43.882Z,1.70
2019-03-20T19:11:12.323Z,1.53
2019-03-20T19:13:40.865Z,1.50
2019-03-20T19:16:09.460Z,2.27
2019-03-20T19:18:37.931Z,1.60
2019-03-20T19:21:06.330Z,2.07
2019-03-20T19:23:34.932Z,1.43
2019-03-20T19:26:03.270Z,2.20
2019-03-20T19:28:31.921Z,1.67
2019-03-20T19:31:00.615Z,1.23
2019-03-20T19:33:29.290Z,1.47
2019-03-20T19:35:57.653Z,1.40
2019-03-20T19:38:34.460Z,2.80
2019-03-20T19:40:56.436Z,3.60
2019-03-20T19:43:24.798Z,2.57
2019-03-20T19:45:53.232Z,2.40
2019-03-20T19:48:21.592Z,1.80
2019-03-20T19:50:49.977Z,2.20
2019-03-20T19:53:18.351Z,1.90
2019-03-20T19:55:46.970Z,1.93
2019-03-20T19:58:15.668Z,2.00
2019-03-20T20:00:44.120Z,2.10
2019-03-20T20:03:12.851Z,2.10
2019-03-20T20:05:41.237Z,2.20
2019-03-20T20:08:09.851Z,2.10
2019-03-20T20:10:41.451Z,1.73
2019-03-20T20:13:09.833Z,1.40
2019-03-20T20:15:38.223Z,2.13
2019-03-20T20:18:06.572Z,2.17
2019-03-20T20:20:34.978Z,2.43
2019-03-20T20:23:04.506Z,1.37
2019-03-20T20:25:33.240Z,1.63
2019-03-20T20:28:01.669Z,2.50
2019-03-20T20:30:30.147Z,1.67
2019-03-20T20:32:59.137Z,1.77
2019-03-20T20:35:27.825Z,2.03
2019-03-20T20:37:56.191Z,1.80
2019-03-20T20:40:24.879Z,2.00
2019-03-20T20:42:53.300Z,1.80
2019-03-20T20:45:21.744Z,1.50
2019-03-20T20:47:50.094Z,1.43
2019-03-20T20:50:18.553Z,1.80
2019-03-20T20:52:47.033Z,1.40
2019-03-20T20:55:15.532Z,1.40
2019-03-20T20:57:44.017Z,1.90
2019-03-20T21:00:18.943Z,1.53
2019-03-20T21:02:47.392Z,1.63
2019-03-20T21:05:15.772Z,1.20
2019-03-20T21:07:44.201Z,1.63
2019-03-20T21:10:13.304Z,1.70
2019-03-20T21:12:42.869Z,1.90
2019-03-20T21:15:19.243Z,1.63
2019-03-20T21:17:55.919Z,1.40
2019-03-20T21:20:24.815Z,1.37
2019-03-20T21:23:27.565Z,1.37
2019-03-20T21:25:57.521Z,1.53
2019-03-20T21:28:57.625Z,1.67
2019-03-20T21:31:31.514Z,1.20
2019-03-20T21:34:31.360Z,2.20
2019-03-20T21:37:15.147Z,1.60
2019-03-20T21:39:44.028Z,1.43
2019-03-20T21:42:40.824Z,1.13
2019-03-20T21:45:28.280Z,1.37
2019-03-20T21:47:57.153Z,1.40
2019-03-20T21:50:53.606Z,1.47
2019-03-20T21:53:25.576Z,1.50
2019-03-20T21:56:12.103Z,1.17
2019-03-20T21:58:56.895Z,1.20
2019-03-20T22:01:44.729Z,1.63
2019-03-20T22:04:13.360Z,1.40
2019-03-20T22:07:19.376Z,1.70
2019-03-20T22:10:10.196Z,1.13
2019-03-20T22:12:42.253Z,1.00
2019-03-20T22:15:13.312Z,1.00
2019-03-20T22:17:51.001Z,1.13
2019-03-20T22:20:56.445Z,1.13
2019-03-20T22:23:47.211Z,1.17
2019-03-20T22:26:33.822Z,1.30
2019-03-20T22:29:21.324Z,0.97
2019-03-20T22:31:53.688Z,1.07
2019-03-20T22:34:40.417Z,1.50
2019-03-20T22:37:09.366Z,0.80
2019-03-20T22:40:00.503Z,1.10
2019-03-20T22:43:00.382Z,1.30
2019-03-20T22:45:40.188Z,1.20
2019-03-20T22:48:44.960Z,1.53
2019-03-20T22:51:41.536Z,1.10
2019-03-20T22:54:44.921Z,1.33
2019-03-20T22:57:25.113Z,1.03
2019-03-20T22:59:53.841Z,1.17
2019-03-20T23:02:28.145Z,0.93
2019-03-20T23:04:57.805Z,1.20
2019-03-20T23:07:26.542Z,1.17
2019-03-20T23:09:55.412Z,1.07
2019-03-20T23:12:24.460Z,0.80
2019-03-20T23:14:53.196Z,1.40
2019-03-20T23:17:21.931Z,1.03
2019-03-20T23:19:51.256Z,1.27
2019-03-20T23:22:20.164Z,1.20
2019-03-20T23:24:48.876Z,1.40
2019-03-20T23:27:25.496Z,1.47
2019-03-20T23:29:54.160Z,1.27
2019-03-20T23:32:23.136Z,1.20
2019-03-20T23:34:51.780Z,1.17
2019-03-20T23:37:20.676Z,0.93
2019-03-20T23:39:49.399Z,1.20
2019-03-20T23:42:18.030Z,1.00
2019-03-20T23:44:46.795Z,0.90
2019-03-20T23:47:15.588Z,1.30
2019-03-20T23:49:44.548Z,1.20
2019-03-20T23:52:13.182Z,1.13
2019-03-20T23:54:46.587Z,1.00
2019-03-20T23:57:15.762Z,1.27
2019-03-20T23:59:44.825Z,1.23
